.
WxDataArchive / Data Records for 2013-12-17
2013-12-16 December 2013 2013-12-18

Data Records for Tuesday, 17 December 2013

Time	Temp	Chill	HIndex	Humid	Dewpt	 Wind 	HiWind	WindDir	Rain 	Barom 
-----	----	-----	------	-----	-----	------	------	-------	-----	----- 
00:00	18.1	18.1	18.1	89	15.4	0	0	---	0.00	30.018 
00:05	18.1	18.1	18.1	90	15.7	0	0	---	0.00	30.018 
00:10	18.1	18.1	18.1	90	15.7	0	0	---	0.00	30.018 
00:15	18.1	18.1	18.1	90	15.7	0	0	---	0.00	30.028 
00:20	18.3	18.3	18.3	90	15.9	0	1	90	0.00	30.028 
00:25	18.3	18.3	18.3	90	15.9	0	1	90	0.00	30.028 
00:30	18.4	18.4	18.4	90	16.0	0	2	90	0.00	30.035 
00:35	18.4	18.4	18.4	90	16.0	0	1	90	0.00	30.035 
00:40	18.4	18.4	18.4	90	16.0	0	1	90	0.00	30.035 
00:45	18.4	18.4	18.4	90	16.0	0	1	90	0.00	30.035 
00:50	18.4	18.4	18.4	90	16.0	0	1	90	0.00	30.035 
00:55	18.4	18.4	18.4	90	16.0	0	1	90	0.00	30.035 
01:00	18.6	18.6	18.6	90	16.2	0	1	90	0.00	30.034 
01:05	18.6	18.6	18.6	90	16.2	0	2	90	0.00	30.034 
01:10	18.6	18.6	18.6	90	16.2	0	1	90	0.00	30.034 
01:15	18.8	18.8	18.8	90	16.4	0	2	90	0.00	30.032 
01:20	18.8	18.8	18.8	90	16.4	1	3	90	0.00	30.032 
01:25	18.9	18.9	18.9	90	16.5	0	2	90	0.00	30.032 
01:30	18.9	18.9	18.9	90	16.5	0	2	90	0.00	30.027 
01:35	19.1	19.1	19.1	91	16.9	0	2	90	0.00	30.027 
01:40	19.1	19.1	19.1	91	16.9	1	3	90	0.00	30.027 
01:45	19.1	19.1	19.1	91	16.9	0	1	90	0.00	30.018 
01:50	19.1	19.1	19.1	91	16.9	1	3	90	0.00	30.018 
01:55	19.1	19.1	19.1	91	16.9	1	2	315	0.00	30.018 
02:00	19.2	19.2	19.2	91	17.0	1	2	315	0.00	30.021 
02:05	19.2	19.2	19.2	91	17.0	1	3	248	0.00	30.021 
02:10	19.4	19.4	19.4	91	17.2	1	3	248	0.00	30.021 
02:15	19.4	19.4	19.4	91	17.2	1	2	248	0.00	30.030 
02:20	19.4	19.4	19.4	91	17.2	1	2	248	0.00	30.030 
02:25	19.5	19.5	19.5	91	17.3	1	2	248	0.00	30.030 
02:30	19.5	19.5	19.5	91	17.3	1	2	248	0.00	30.023 
02:35	19.5	19.5	19.5	91	17.3	0	2	248	0.00	30.023 
02:40	19.7	19.7	19.7	91	17.5	1	3	248	0.00	30.023 
02:45	19.7	19.7	19.7	91	17.5	0	2	248	0.00	30.020 
02:50	19.9	19.9	19.9	91	17.7	1	3	248	0.00	30.020 
02:55	20.0	20.0	20.0	91	17.8	1	2	248	0.00	30.020 
03:00	20.0	20.0	20.0	91	17.8	1	3	248	0.00	30.017 
03:05	20.0	20.0	20.0	91	17.8	1	4	248	0.00	30.017 
03:10	20.2	20.2	20.2	91	18.0	1	4	270	0.00	30.017 
03:15	20.2	20.2	20.2	90	17.7	1	3	270	0.00	30.018 
03:20	20.0	20.0	20.0	90	17.5	1	4	270	0.00	30.018 
03:25	20.0	20.0	20.0	90	17.5	1	3	270	0.00	30.018 
03:30	20.0	20.0	20.0	90	17.5	1	2	270	0.00	30.020 
03:35	20.0	20.0	20.0	90	17.5	1	2	270	0.00	30.020 
03:40	20.0	20.0	20.0	90	17.5	2	3	270	0.00	30.020 
03:45	20.0	20.0	20.0	90	17.5	2	5	270	0.00	30.033 
03:50	19.9	19.9	19.9	90	17.5	2	4	270	0.00	30.033 
03:55	19.9	19.9	19.9	90	17.5	2	4	270	0.00	30.033 
04:00	19.9	19.9	19.9	90	17.5	1	2	270	0.00	30.032 
04:05	19.9	19.9	19.9	90	17.5	1	3	270	0.00	30.032 
04:10	19.9	19.9	19.9	90	17.5	0	1	270	0.00	30.032 
04:15	19.9	19.9	19.9	90	17.5	1	3	270	0.00	30.029 
04:20	20.0	20.0	20.0	90	17.5	1	4	270	0.00	30.029 
04:25	20.0	20.0	20.0	90	17.5	1	3	270	0.00	30.029 
04:30	20.0	20.0	20.0	90	17.5	2	4	270	0.00	30.046 
04:35	20.0	20.0	20.0	90	17.5	1	3	270	0.00	30.046 
04:40	20.0	20.0	20.0	90	17.5	1	3	270	0.00	30.046 
04:45	20.0	20.0	20.0	90	17.5	2	5	270	0.00	30.033 
04:50	20.0	20.0	20.0	90	17.5	2	5	270	0.00	30.033 
04:55	19.9	19.9	19.9	90	17.5	1	3	270	0.00	30.033 
05:00	19.9	19.9	19.9	90	17.5	1	3	270	0.00	30.033 
05:05	19.9	19.9	19.9	90	17.5	1	3	270	0.00	30.033 
05:10	20.0	20.0	20.0	90	17.5	1	4	270	0.00	30.033 
05:15	20.0	20.0	20.0	90	17.5	0	2	270	0.00	30.027 
05:20	20.0	20.0	20.0	90	17.5	1	3	292	0.00	30.027 
05:25	20.0	20.0	20.0	90	17.5	1	3	292	0.00	30.027 
05:30	20.0	20.0	20.0	90	17.5	0	2	292	0.00	30.030 
05:35	20.0	20.0	20.0	90	17.5	0	2	292	0.00	30.030 
05:40	20.0	20.0	20.0	90	17.5	0	2	292	0.00	30.030 
05:45	20.2	20.2	20.2	90	17.7	0	2	292	0.00	30.047 
05:50	20.2	20.2	20.2	90	17.7	0	2	292	0.00	30.047 
05:55	20.2	20.2	20.2	90	17.7	1	3	292	0.00	30.047 
06:00	20.2	20.2	20.2	90	17.7	2	4	292	0.00	30.048 
06:05	20.3	20.3	20.3	90	17.8	1	4	270	0.00	30.048 
06:10	20.3	20.3	20.3	90	17.8	0	2	270	0.00	30.048 
06:15	20.3	20.3	20.3	90	17.8	0	2	270	0.00	30.049 
06:20	20.3	20.3	20.3	90	17.8	0	2	270	0.00	30.049 
06:25	20.5	20.5	20.5	90	18.0	1	4	270	0.00	30.049 
06:30	20.5	20.5	20.5	90	18.0	1	3	270	0.00	30.050 
06:35	20.5	20.5	20.5	90	18.0	2	4	270	0.00	30.050 
06:40	20.5	20.5	20.5	90	18.0	1	4	270	0.00	30.050 
06:45	20.5	20.5	20.5	90	18.0	1	4	270	0.00	30.055 
06:50	20.5	20.5	20.5	90	18.0	2	6	270	0.00	30.055 
06:55	20.5	20.5	20.5	90	18.0	1	3	248	0.00	30.055 
07:00	20.5	20.5	20.5	90	18.0	0	2	248	0.00	30.059 
07:05	20.5	20.5	20.5	90	18.0	1	3	248	0.00	30.059 
07:10	20.5	20.5	20.5	90	18.0	1	3	248	0.00	30.059 
07:15	20.5	20.5	20.5	90	18.0	1	4	248	0.00	30.062 
07:20	20.5	20.5	20.5	90	18.0	1	3	248	0.00	30.062 
07:25	20.5	20.5	20.5	90	18.0	1	3	248	0.00	30.062 
07:30	20.5	20.5	20.5	90	18.0	1	3	248	0.00	30.064 
07:35	20.5	20.5	20.5	89	17.8	0	2	248	0.00	30.064 
07:40	20.5	20.5	20.5	89	17.8	1	3	248	0.00	30.064 
07:45	20.5	20.5	20.5	89	17.8	2	6	315	0.00	30.063 
07:50	20.5	20.5	20.5	89	17.8	1	3	270	0.00	30.063 
07:55	20.5	20.5	20.5	89	17.8	1	3	270	0.00	30.063 
08:00	20.5	20.5	20.5	89	17.8	1	4	270	0.00	30.064 
08:05	20.5	20.5	20.5	89	17.8	1	3	270	0.00	30.064 
08:10	20.5	20.5	20.5	89	17.8	1	2	270	0.00	30.064 
08:15	20.5	20.5	20.5	89	17.8	0	2	270	0.00	30.063 
08:20	20.3	20.3	20.3	89	17.6	1	3	270	0.00	30.063 
08:25	20.3	20.3	20.3	89	17.6	0	2	270	0.00	30.063 
08:30	20.3	20.3	20.3	89	17.6	0	3	270	0.00	30.061 
08:35	20.3	20.3	20.3	89	17.6	0	2	270	0.00	30.061 
08:40	20.3	20.3	20.3	89	17.6	1	4	270	0.00	30.061 
08:45	20.3	20.3	20.3	89	17.6	1	2	270	0.00	30.059 
08:50	20.5	20.5	20.5	89	17.8	0	1	270	0.00	30.059 
08:55	20.5	20.5	20.5	89	17.8	0	2	270	0.00	30.059 
09:00	20.6	20.6	20.6	89	17.9	0	2	270	0.00	30.054 
09:05	20.6	20.6	20.6	89	17.9	0	2	270	0.00	30.054 
09:10	20.8	20.8	20.8	89	18.1	1	3	270	0.00	30.054 
09:15	20.8	20.8	20.8	89	18.1	0	2	270	0.00	30.054 
09:20	21.0	21.0	21.0	89	18.3	0	2	270	0.00	30.054 
09:25	21.0	21.0	21.0	89	18.3	1	3	270	0.00	30.054 
09:30	21.1	21.1	21.1	89	18.4	0	2	248	0.00	30.047 
09:35	21.3	21.3	21.3	89	18.6	0	3	248	0.00	30.047 
09:40	21.3	21.3	21.3	89	18.6	1	3	248	0.00	30.047 
09:45	21.3	21.3	21.3	89	18.6	0	2	248	0.00	30.048 
09:50	21.4	21.4	21.4	89	18.7	0	2	248	0.00	30.048 
09:55	21.4	21.4	21.4	88	18.4	1	5	248	0.00	30.048 
10:00	21.3	21.3	21.3	88	18.3	1	5	248	0.00	30.051 
10:05	21.1	21.1	21.1	88	18.1	1	4	248	0.00	30.051 
10:10	20.8	20.8	20.8	88	17.8	2	5	248	0.00	30.051 
10:15	20.6	20.6	20.6	88	17.6	1	3	248	0.00	30.061 
10:20	20.6	20.6	20.6	87	17.4	1	5	248	0.00	30.061 
10:25	20.6	20.6	20.6	88	17.6	1	3	248	0.00	30.061 
10:30	21.0	21.0	21.0	88	18.0	0	1	248	0.00	30.061 
10:35	21.1	21.1	21.1	87	17.8	1	3	248	0.00	30.061 
10:40	21.3	21.3	21.3	87	18.0	0	2	248	0.00	30.061 
10:45	21.4	21.4	21.4	87	18.1	1	5	248	0.00	30.060 
10:50	21.4	21.4	21.4	87	18.1	1	5	248	0.00	30.060 
10:55	21.4	21.4	21.4	87	18.1	1	3	248	0.00	30.060 
11:00	21.4	21.4	21.4	86	17.9	0	4	248	0.00	30.054 
11:05	21.6	21.6	21.6	86	18.1	1	3	248	0.00	30.054 
11:10	21.8	21.8	21.8	86	18.3	1	4	248	0.00	30.054 
11:15	21.9	21.9	21.9	86	18.4	0	3	270	0.00	30.047 
11:20	21.8	21.8	21.8	86	18.3	1	4	248	0.00	30.047 
11:25	21.8	21.8	21.8	86	18.3	1	4	248	0.00	30.047 
11:30	21.8	21.8	21.8	86	18.3	1	3	225	0.00	30.041 
11:35	21.6	21.6	21.6	85	17.8	1	3	225	0.00	30.041 
11:40	21.6	21.6	21.6	85	17.8	1	4	225	0.00	30.041 
11:45	21.6	21.6	21.6	85	17.8	0	3	248	0.00	30.030 
11:50	21.6	21.6	21.6	85	17.8	1	3	225	0.00	30.030 
11:55	21.8	21.8	21.8	85	18.0	0	2	225	0.00	30.030 
12:00	21.9	21.9	21.9	85	18.1	0	3	248	0.00	30.012 
12:05	22.1	22.1	22.1	85	18.3	0	2	248	0.00	30.012 
12:10	22.1	22.1	22.1	84	18.0	0	3	248	0.00	30.012 
12:15	22.2	22.2	22.2	84	18.1	1	5	248	0.00	30.001 
12:20	21.9	21.9	21.9	84	17.8	2	5	248	0.00	30.001 
12:25	21.9	21.9	21.9	84	17.8	1	3	248	0.00	30.001 
12:30	21.9	21.9	21.9	83	17.5	2	5	248	0.00	30.001 
12:35	21.8	21.8	21.8	83	17.4	2	7	225	0.00	30.001 
12:40	21.9	21.9	21.9	83	17.5	1	3	225	0.00	30.001 
12:45	22.1	22.1	22.1	83	17.7	1	5	225	0.00	30.000 
12:50	22.2	22.2	22.2	83	17.8	2	5	248	0.00	30.000 
12:55	22.2	22.2	22.2	82	17.6	2	7	248	0.00	30.000 
13:00	22.4	22.4	22.4	82	17.8	2	4	248	0.00	29.992 
13:05	22.5	22.5	22.5	82	17.9	1	3	248	0.00	29.992 
13:10	22.7	22.7	22.7	82	18.0	1	3	248	0.00	29.992 
13:15	23.0	23.0	23.0	81	18.1	1	3	248	0.00	29.983 
13:20	23.0	23.0	23.0	81	18.1	1	4	248	0.00	29.983 
13:25	23.3	23.3	23.3	81	18.3	1	3	248	0.00	29.983 
13:30	23.5	23.5	23.5	80	18.3	0	3	248	0.00	29.982 
13:35	23.6	23.6	23.6	79	18.1	1	5	248	0.00	29.982 
13:40	23.5	23.5	23.5	79	18.0	1	5	248	0.00	29.982 
13:45	23.6	23.6	23.6	79	18.1	1	5	248	0.00	29.985 
13:50	23.5	23.5	23.5	80	18.3	2	7	248	0.00	29.985 
13:55	23.5	23.5	23.5	80	18.3	2	6	248	0.00	29.985 
14:00	23.5	23.5	23.5	81	18.5	1	3	248	0.00	29.981 
14:05	23.5	23.5	23.5	81	18.5	1	4	248	0.00	29.981 
14:10	23.5	23.5	23.5	82	18.8	2	5	248	0.00	29.981 
14:15	23.5	23.5	23.5	83	19.1	1	4	248	0.00	29.974 
14:20	23.5	23.5	23.5	83	19.1	1	4	248	0.00	29.974 
14:25	23.5	23.5	23.5	84	19.4	1	3	248	0.00	29.974 
14:30	23.6	23.6	23.6	84	19.5	1	4	248	0.00	29.970 
14:35	23.8	23.8	23.8	83	19.4	1	3	248	0.00	29.970 
14:40	23.8	23.8	23.8	83	19.4	1	3	248	0.00	29.970 
14:45	23.9	23.9	23.9	83	19.5	1	6	248	0.00	29.981 
14:50	24.1	24.1	24.1	83	19.7	2	6	248	0.00	29.981 
14:55	24.1	24.1	24.1	82	19.4	2	7	248	0.00	29.981 
15:00	24.1	24.1	24.1	82	19.4	2	5	248	0.00	29.978 
15:05	24.1	24.1	24.1	81	19.1	3	4	270	0.00	29.978 
15:10	24.2	24.2	24.2	82	19.5	2	6	225	0.00	29.978 
15:15	24.2	24.2	24.2	81	19.2	3	6	248	0.00	29.971 
15:20	24.2	24.2	24.2	81	19.2	3	7	248	0.00	29.971 
15:25	24.1	24.1	24.1	81	19.1	3	7	270	0.00	29.971 
15:30	24.1	24.1	24.1	82	19.4	2	4	248	0.00	29.979 
15:35	24.1	24.1	24.1	82	19.4	2	6	248	0.00	29.979 
15:40	23.9	23.9	23.9	83	19.5	2	4	248	0.00	29.979 
15:45	23.9	23.9	23.9	83	19.5	2	5	270	0.00	29.989 
15:50	23.9	23.9	23.9	83	19.5	2	6	248	0.00	29.989 
15:55	23.8	23.8	23.8	83	19.4	3	6	248	0.00	29.989 
16:00	23.9	23.9	23.9	83	19.5	2	5	248	0.00	29.994 
16:05	24.1	24.1	24.1	83	19.7	2	5	248	0.00	29.994 
16:10	24.1	24.1	24.1	83	19.7	2	6	248	0.00	29.994 
16:15	24.1	24.1	24.1	83	19.7	2	7	248	0.00	29.996 
16:20	24.1	24.1	24.1	84	20.0	2	4	248	0.00	29.996 
16:25	24.2	24.2	24.2	84	20.1	1	4	248	0.00	29.996 
16:30	24.2	24.2	24.2	84	20.1	1	3	248	0.00	29.996 
16:35	24.2	24.2	24.2	84	20.1	1	6	248	0.00	29.996 
16:40	24.4	24.4	24.4	84	20.3	1	4	270	0.00	29.996 
16:45	24.4	24.4	24.4	84	20.3	2	5	248	0.00	29.995 
16:50	24.4	24.4	24.4	84	20.3	1	3	248	0.00	29.995 
16:55	24.5	24.5	24.5	84	20.4	1	3	248	0.00	29.995 
17:00	24.5	24.5	24.5	85	20.6	2	6	248	0.00	29.997 
17:05	24.7	24.7	24.7	85	20.8	1	5	248	0.00	29.997 
17:10	24.7	24.7	24.7	85	20.8	1	4	248	0.00	29.997 
17:15	24.8	24.8	24.8	85	20.9	1	3	248	0.00	30.003 
17:20	24.8	24.8	24.8	85	20.9	1	3	248	0.00	30.003 
17:25	25.0	25.0	25.0	86	21.4	1	3	248	0.00	30.003 
17:30	25.1	25.1	25.1	86	21.5	1	4	248	0.00	30.012 
17:35	25.3	25.3	25.3	86	21.7	0	2	248	0.00	30.012 
17:40	25.4	25.4	25.4	86	21.8	1	3	248	0.00	30.012 
17:45	25.6	25.6	25.6	86	22.0	1	4	248	0.00	30.017 
17:50	25.7	25.7	25.7	86	22.1	2	6	270	0.00	30.017 
17:55	25.8	25.8	25.8	86	22.2	2	4	270	0.00	30.017 
18:00	26.0	26.0	26.0	86	22.4	2	6	248	0.00	30.023 
18:05	26.1	26.1	26.1	86	22.5	2	5	248	0.00	30.023 
18:10	26.1	26.1	26.1	86	22.5	2	4	248	0.00	30.023 
18:15	26.3	26.3	26.3	85	22.4	2	6	248	0.00	30.026 
18:20	26.4	26.4	26.4	85	22.5	2	12	270	0.00	30.026 
18:25	26.4	26.4	26.4	85	22.5	2	5	248	0.00	30.026 
18:30	26.6	26.6	26.6	84	22.4	2	6	248	0.00	30.030 
18:35	26.6	26.6	26.6	84	22.4	2	6	248	0.00	30.030 
18:40	26.7	26.7	26.7	84	22.5	2	5	270	0.00	30.030 
18:45	26.7	26.7	26.7	84	22.5	2	9	248	0.00	30.030 
18:50	26.7	26.7	26.7	84	22.5	2	6	248	0.00	30.030 
18:55	26.7	26.7	26.7	84	22.5	2	5	248	0.00	30.030 
19:00	26.9	26.9	26.9	83	22.4	2	6	248	0.00	30.037 
19:05	26.9	26.9	26.9	83	22.4	1	4	248	0.00	30.037 
19:10	26.9	26.9	26.9	83	22.4	2	5	248	0.00	30.037 
19:15	26.9	26.9	26.9	84	22.7	2	5	248	0.00	30.039 
19:20	26.9	26.9	26.9	84	22.7	1	6	248	0.00	30.039 
19:25	26.7	26.7	26.7	84	22.5	1	5	248	0.00	30.039 
19:30	26.9	26.9	26.9	84	22.7	2	5	248	0.00	30.041 
19:35	26.9	26.9	26.9	84	22.7	1	4	248	0.00	30.041 
19:40	26.9	26.9	26.9	84	22.7	1	3	248	0.00	30.041 
19:45	26.9	26.9	26.9	84	22.7	1	3	248	0.00	30.043 
19:50	26.9	26.9	26.9	85	23.0	1	4	248	0.00	30.043 
19:55	27.0	27.0	27.0	85	23.1	1	5	248	0.00	30.043 
20:00	27.0	27.0	27.0	85	23.1	1	5	248	0.00	30.047 
20:05	27.0	27.0	27.0	85	23.1	1	3	248	0.00	30.047 
20:10	27.0	27.0	27.0	85	23.1	1	5	270	0.00	30.047 
20:15	27.0	27.0	27.0	85	23.1	2	6	248	0.00	30.052 
20:20	26.9	26.9	26.9	85	23.0	1	5	248	0.00	30.052 
20:25	27.0	27.0	27.0	85	23.1	1	3	248	0.00	30.052 
20:30	27.0	27.0	27.0	85	23.1	1	4	248	0.00	30.053 
20:35	27.0	27.0	27.0	86	23.4	2	5	248	0.00	30.053 
20:40	27.0	27.0	27.0	86	23.4	1	3	225	0.00	30.053 
20:45	27.2	27.2	27.2	86	23.6	1	4	248	0.00	30.054 
20:50	27.2	27.2	27.2	86	23.6	1	3	248	0.00	30.054 
20:55	27.2	27.2	27.2	86	23.6	1	3	248	0.00	30.054 
21:00	27.2	27.2	27.2	86	23.6	1	3	248	0.00	30.055 
21:05	27.2	27.2	27.2	86	23.6	1	4	248	0.00	30.055 
21:10	27.3	27.3	27.3	86	23.7	1	3	248	0.00	30.055 
21:15	27.5	27.5	27.5	86	23.9	1	3	248	0.00	30.058 
21:20	27.5	27.5	27.5	86	23.9	1	3	248	0.00	30.058 
21:25	27.5	27.5	27.5	86	23.9	1	4	248	0.00	30.058 
21:30	27.5	27.5	27.5	86	23.9	0	3	248	0.00	30.060 
21:35	27.3	27.3	27.3	86	23.7	1	5	248	0.00	30.060 
21:40	27.3	27.3	27.3	86	23.7	0	2	248	0.00	30.060 
21:45	27.2	27.2	27.2	86	23.6	1	2	248	0.00	30.064 
21:50	27.2	27.2	27.2	86	23.6	1	2	248	0.00	30.064 
21:55	27.0	27.0	27.0	86	23.4	1	4	248	0.00	30.064 
22:00	26.9	26.9	26.9	86	23.3	0	3	248	0.00	30.066 
22:05	26.7	26.7	26.7	86	23.1	0	2	248	0.00	30.066 
22:10	26.6	26.6	26.6	85	22.7	0	3	248	0.00	30.066 
22:15	26.4	26.4	26.4	86	22.8	1	3	248	0.00	30.071 
22:20	26.3	26.3	26.3	85	22.4	1	3	248	0.00	30.071 
22:25	26.3	26.3	26.3	85	22.4	1	4	248	0.00	30.071 
22:30	26.1	26.1	26.1	85	22.2	1	2	248	0.00	30.071 
22:35	25.8	25.8	25.8	85	21.9	0	3	248	0.00	30.071 
22:40	25.7	25.7	25.7	85	21.8	0	2	248	0.00	30.071 
22:45	25.6	25.6	25.6	84	21.5	0	3	248	0.00	30.072 
22:50	25.3	25.3	25.3	84	21.2	0	1	248	0.00	30.072 
22:55	25.1	25.1	25.1	84	21.0	1	4	248	0.00	30.072 
23:00	25.0	25.0	25.0	84	20.9	1	3	248	0.00	30.073 
23:05	24.8	24.8	24.8	84	20.7	0	3	248	0.00	30.073 
23:10	24.7	24.7	24.7	84	20.6	0	3	248	0.00	30.073 
23:15	24.4	24.4	24.4	84	20.3	1	4	248	0.00	30.074 
23:20	24.2	24.2	24.2	84	20.1	0	4	248	0.00	30.074 
23:25	24.1	24.1	24.1	83	19.7	0	2	248	0.00	30.074 
23:30	23.9	23.9	23.9	83	19.5	0	3	248	0.00	30.079 
23:35	23.8	23.8	23.8	83	19.4	0	2	248	0.00	30.079 
23:40	23.6	23.6	23.6	83	19.2	0	2	248	0.00	30.079 
23:45	23.6	23.6	23.6	82	18.9	1	3	248	0.00	30.083 
23:50	23.6	23.6	23.6	82	18.9	1	5	248	0.00	30.083 
23:55	23.6	23.6	23.6	81	18.6	1	3	248	0.00	30.083 

CoCoRaHS
IN-AL-39
A2 Web Hosting
Creative Commons License
GoDaddy
search engine by freefind advanced

loaded 2018-11-22 05:23:35 • last modified 2010-11-18 10:43:29
Privacy PolicyDisclaimer
• wx.awcolley.com is powered by PmWiki v.2002016 •
• all content (unless otherwise noted) © 2018 A W Colley